Time;durP1;ratioP1;P1;durP2;ratioP2;P2;SDS_P1;SDS_P2;PMS_P1;PMS_P2;Temp;Humidity;BMP_temperature;BMP_pressure;BME280_temperature;BME280_humidity;BME280_pressure;Samples;Min_cycle;Max_cycle;Signal;HPM_P1;HPM_P2
2023/01/13 00:01:17;;;;;;;26.42;14.10;;;;;;;;;;5117507;28;20145;-76
2023/01/13 00:04:03;;;;;;;27.00;13.65;;;;;;;;;;5117477;28;20026;-77
2023/01/13 00:06:49;;;;;;;24.70;12.85;;;;;;;;;;5116067;28;20028;-76
2023/01/13 00:09:35;;;;;;;26.63;13.68;;;;;;;;;;5102324;28;20012;-77
2023/01/13 00:12:20;;;;;;;28.40;14.15;;;;;;;;;;5118014;27;20020;-76
2023/01/13 00:15:07;;;;;;;25.73;13.30;;;;;;;;;;5103002;28;20019;-77
2023/01/13 00:17:52;;;;;;;29.15;14.57;;;;;;;;;;5103055;28;20026;-77
2023/01/13 00:20:38;;;;;;;27.05;13.75;;;;;;;;;;5116529;28;20043;-77
2023/01/13 00:23:23;;;;;;;28.88;14.10;;;;;;;;;;5116793;28;20092;-79
2023/01/13 00:26:10;;;;;;;27.05;13.75;;;;;;;;;;5115869;28;20038;-77
2023/01/13 00:28:57;;;;;;;32.05;13.90;;;;;;;;;;5099801;28;20020;-77
2023/01/13 00:31:43;;;;;;;28.15;13.75;;;;;;;;;;5116610;28;20427;-77
2023/01/13 00:34:28;;;;;;;28.27;13.68;;;;;;;;;;5116575;28;20455;-76
2023/01/13 00:37:14;;;;;;;27.23;14.30;;;;;;;;;;5117143;28;20055;-77
2023/01/13 00:39:59;;;;;;;26.63;13.70;;;;;;;;;;5116507;28;20016;-78
2023/01/13 00:45:52;;;;;;;28.17;14.10;;;;;;;;;;5115727;28;20027;-75
2023/01/13 00:48:38;;;;;;;26.10;13.65;;;;;;;;;;5114766;28;20027;-77
2023/01/13 00:51:23;;;;;;;31.23;14.88;;;;;;;;;;5116519;28;20095;-76
2023/01/13 00:54:09;;;;;;;29.38;13.43;;;;;;;;;;5115410;28;20027;-77
2023/01/13 00:56:55;;;;;;;29.25;13.30;;;;;;;;;;5116558;28;20045;-77
2023/01/13 00:59:40;;;;;;;27.08;13.30;;;;;;;;;;5116084;28;20035;-77
2023/01/13 01:02:26;;;;;;;26.67;12.75;;;;;;;;;;5116776;28;20062;-77
2023/01/13 01:05:11;;;;;;;25.48;13.27;;;;;;;;;;5115856;28;20463;-77
2023/01/13 01:07:57;;;;;;;27.77;13.75;;;;;;;;;;5116456;28;20031;-77
2023/01/13 01:10:43;;;;;;;28.52;13.75;;;;;;;;;;5101722;28;20054;-77
2023/01/13 01:13:28;;;;;;;25.35;12.18;;;;;;;;;;5115933;28;20028;-77
2023/01/13 01:16:15;;;;;;;27.60;13.00;;;;;;;;;;5116021;28;20043;-78
2023/01/13 01:19:01;;;;;;;30.40;13.70;;;;;;;;;;5115789;28;20016;-77
2023/01/13 01:21:46;;;;;;;28.33;13.13;;;;;;;;;;5116626;28;20023;-77
2023/01/13 01:24:32;;;;;;;27.42;13.00;;;;;;;;;;5101547;28;20047;-76
2023/01/13 01:27:18;;;;;;;26.95;13.55;;;;;;;;;;5115001;28;20028;-77
2023/01/13 01:30:03;;;;;;;31.67;14.13;;;;;;;;;;5116089;28;20016;-77
2023/01/13 01:32:49;;;;;;;26.75;13.65;;;;;;;;;;5115990;28;20029;-78
2023/01/13 01:35:37;;;;;;;35.35;14.50;;;;;;;;;;5115651;28;20020;-78
2023/01/13 01:38:23;;;;;;;27.52;13.52;;;;;;;;;;5100601;28;20020;-78
2023/01/13 01:41:11;;;;;;;23.77;12.05;;;;;;;;;;5099965;28;20024;-76
2023/01/13 01:43:59;;;;;;;28.38;13.40;;;;;;;;;;5100554;28;20523;-77
2023/01/13 01:46:44;;;;;;;28.30;13.70;;;;;;;;;;5099948;28;20031;-77
2023/01/13 01:49:31;;;;;;;26.88;13.15;;;;;;;;;;5115033;28;20111;-76
2023/01/13 01:52:26;;;;;;;31.23;13.90;;;;;;;;;;5114590;28;20027;-77
2023/01/13 01:55:15;;;;;;;31.80;13.93;;;;;;;;;;5102256;28;20024;-77
2023/01/13 01:58:03;;;;;;;30.25;13.48;;;;;;;;;;5115068;28;20016;-77
2023/01/13 02:00:48;;;;;;;30.45;14.75;;;;;;;;;;5114974;28;20054;-77
2023/01/13 02:03:36;;;;;;;30.73;13.85;;;;;;;;;;5100931;28;20398;-77
2023/01/13 02:06:22;;;;;;;35.85;15.43;;;;;;;;;;5114800;28;20016;-77
2023/01/13 02:09:08;;;;;;;31.65;14.25;;;;;;;;;;5099979;28;20457;-77
2023/01/13 02:15:00;;;;;;;35.67;15.52;;;;;;;;;;5115016;28;20024;-76
2023/01/13 02:17:52;;;;;;;30.90;14.50;;;;;;;;;;5114853;28;20102;-77
2023/01/13 02:21:13;;;;;;;33.80;14.98;;;;;;;;;;5114446;28;20431;-76
2023/01/13 02:27:26;;;;;;;33.67;15.45;;;;;;;;;;5114307;28;20403;-76
2023/01/13 02:33:25;;;;;;;43.17;18.10;;;;;;;;;;5114356;28;20351;-77
2023/01/13 02:36:23;;;;;;;36.65;17.13;;;;;;;;;;5114706;28;20102;-77
2023/01/13 02:39:17;;;;;;;37.38;16.98;;;;;;;;;;5114492;28;20012;-77
2023/01/13 02:45:23;;;;;;;45.55;18.50;;;;;;;;;;5114627;28;20019;-76
2023/01/13 02:48:09;;;;;;;47.22;18.60;;;;;;;;;;5114432;28;20023;-77
2023/01/13 02:50:57;;;;;;;38.08;17.38;;;;;;;;;;5100478;28;20026;-76
2023/01/13 02:53:46;;;;;;;40.35;18.05;;;;;;;;;;5114268;28;20095;-77
2023/01/13 02:56:33;;;;;;;36.05;16.98;;;;;;;;;;5114292;28;20027;-78
2023/01/13 02:59:19;;;;;;;38.42;17.40;;;;;;;;;;5115091;28;20023;-77
2023/01/13 03:02:06;;;;;;;39.83;17.30;;;;;;;;;;5099072;28;20047;-76
2023/01/13 03:04:56;;;;;;;42.90;18.52;;;;;;;;;;5115223;28;20415;-77
2023/01/13 03:07:48;;;;;;;36.15;17.65;;;;;;;;;;5098046;28;20024;-77
2023/01/13 03:10:46;;;;;;;47.65;18.48;;;;;;;;;;5114760;28;20023;-77
2023/01/13 03:13:50;;;;;;;43.53;19.35;;;;;;;;;;5115170;28;20019;-77
2023/01/13 03:16:37;;;;;;;38.65;16.92;;;;;;;;;;5114559;28;20028;-77
2023/01/13 03:19:37;;;;;;;41.50;18.08;;;;;;;;;;5117890;28;20333;-77
2023/01/13 03:22:33;;;;;;;38.70;17.17;;;;;;;;;;5117401;28;20023;-77
2023/01/13 03:25:30;;;;;;;41.55;16.80;;;;;;;;;;5117981;28;20023;-77
2023/01/13 03:28:19;;;;;;;39.03;17.27;;;;;;;;;;5118281;28;20035;-77
2023/01/13 03:31:09;;;;;;;41.97;17.63;;;;;;;;;;5117327;28;20072;-77
2023/01/13 03:33:56;;;;;;;39.08;17.95;;;;;;;;;;5117828;28;20030;-77
2023/01/13 03:36:43;;;;;;;38.35;18.25;;;;;;;;;;5117911;28;20055;-77
2023/01/13 03:39:30;;;;;;;38.42;17.52;;;;;;;;;;5102869;28;20015;-77
2023/01/13 03:42:19;;;;;;;38.65;17.23;;;;;;;;;;5117721;28;20439;-77
2023/01/13 03:45:16;;;;;;;41.38;17.30;;;;;;;;;;5117827;28;20462;-77
2023/01/13 03:48:05;;;;;;;39.50;16.75;;;;;;;;;;5118199;28;20115;-76
2023/01/13 03:50:52;;;;;;;35.85;16.48;;;;;;;;;;5117566;28;20030;-77
2023/01/13 03:53:40;;;;;;;39.20;16.77;;;;;;;;;;5124883;28;20043;-78
2023/01/13 03:56:33;;;;;;;37.33;16.98;;;;;;;;;;5124466;28;20030;-77
2023/01/13 03:59:24;;;;;;;36.42;16.77;;;;;;;;;;5117646;28;20027;-77
2023/01/13 04:02:15;;;;;;;34.92;15.85;;;;;;;;;;5117514;28;20142;-78
2023/01/13 04:05:02;;;;;;;42.00;17.70;;;;;;;;;;5118112;28;20020;-78
2023/01/13 04:08:08;;;;;;;39.33;16.83;;;;;;;;;;5119435;28;20032;-76
2023/01/13 04:11:04;;;;;;;36.00;15.93;;;;;;;;;;5114157;28;20039;-77
2023/01/13 04:13:51;;;;;;;35.88;15.73;;;;;;;;;;5100482;28;20030;-78
2023/01/13 04:16:37;;;;;;;37.55;16.42;;;;;;;;;;5117158;28;20413;-78
2023/01/13 04:19:22;;;;;;;34.35;16.52;;;;;;;;;;5116809;28;20016;-77
2023/01/13 04:22:08;;;;;;;35.78;16.48;;;;;;;;;;5101591;28;20031;-77
2023/01/13 04:24:53;;;;;;;32.38;15.63;;;;;;;;;;5117578;28;20015;-76
2023/01/13 04:27:39;;;;;;;40.95;17.58;;;;;;;;;;5123997;28;20347;-77
2023/01/13 04:30:24;;;;;;;39.47;16.67;;;;;;;;;;5107237;28;20019;-77
2023/01/13 04:33:11;;;;;;;38.58;17.23;;;;;;;;;;5102703;28;20423;-77
2023/01/13 04:35:56;;;;;;;37.58;16.92;;;;;;;;;;5100310;28;20012;-77
2023/01/13 04:38:42;;;;;;;34.13;16.33;;;;;;;;;;5115993;28;20393;-76
2023/01/13 04:41:56;;;;;;;36.53;16.90;;;;;;;;;;5101186;28;20027;-76
2023/01/13 04:44:34;;;;;;;39.50;16.35;;;;;;;;;;5116963;28;20023;-76
2023/01/13 04:47:19;;;;;;;39.47;17.48;;;;;;;;;;5101417;28;20019;-76
2023/01/13 04:50:05;;;;;;;34.50;15.73;;;;;;;;;;5101283;28;20108;-77
2023/01/13 04:52:51;;;;;;;32.78;16.10;;;;;;;;;;5101752;28;20099;-77
2023/01/13 04:55:37;;;;;;;32.65;16.40;;;;;;;;;;5116778;28;20371;-76
2023/01/13 04:58:23;;;;;;;36.30;16.45;;;;;;;;;;5116553;28;20016;-76
2023/01/13 05:01:08;;;;;;;40.13;17.67;;;;;;;;;;5115767;28;20047;-76
2023/01/13 05:03:54;;;;;;;35.45;16.45;;;;;;;;;;5101279;28;20028;-77
2023/01/13 05:06:40;;;;;;;32.28;15.18;;;;;;;;;;5100204;28;20024;-76
2023/01/13 05:09:25;;;;;;;29.65;14.85;;;;;;;;;;5114902;28;20012;-77
2023/01/13 05:18:19;;;;;;;32.72;15.00;;;;;;;;;;5115554;28;20023;-76
2023/01/13 05:25:20;;;;;;;31.17;15.00;;;;;;;;;;5116398;28;20020;-76
2023/01/13 05:27:14;;;;;;;30.30;14.95;;;;;;;;;;5116215;28;20020;-76
2023/01/13 05:30:00;;;;;;;27.67;14.30;;;;;;;;;;5115843;28;20444;-78
2023/01/13 05:32:46;;;;;;;29.52;14.18;;;;;;;;;;5118630;28;20024;-76
2023/01/13 05:35:31;;;;;;;28.25;14.55;;;;;;;;;;5126386;28;20011;-76
2023/01/13 05:38:17;;;;;;;30.17;15.10;;;;;;;;;;5134745;28;20096;-78
2023/01/13 05:44:07;;;;;;;30.25;14.63;;;;;;;;;;5119634;28;20478;-75
2023/01/13 05:46:52;;;;;;;28.27;14.80;;;;;;;;;;5124175;28;20055;-76
2023/01/13 05:49:38;;;;;;;29.25;14.73;;;;;;;;;;5120995;28;20000;-76
2023/01/13 05:52:23;;;;;;;28.15;14.38;;;;;;;;;;5121658;28;20020;-76
2023/01/13 05:55:10;;;;;;;28.13;14.25;;;;;;;;;;5135898;28;20012;-76
2023/01/13 05:57:55;;;;;;;25.77;13.45;;;;;;;;;;5137233;28;20019;-76
2023/01/13 06:00:41;;;;;;;25.67;13.20;;;;;;;;;;5135472;27;20044;-77
2023/01/13 06:03:27;;;;;;;27.38;14.05;;;;;;;;;;5136260;28;20019;-77
2023/01/13 06:06:12;;;;;;;25.17;13.13;;;;;;;;;;5121251;28;20019;-76
2023/01/13 06:08:58;;;;;;;24.05;13.13;;;;;;;;;;5107028;28;20083;-77
2023/01/13 06:11:43;;;;;;;26.08;13.30;;;;;;;;;;5118213;28;20063;-77
2023/01/13 06:14:38;;;;;;;27.23;13.85;;;;;;;;;;5117378;28;20088;-77
2023/01/13 06:17:24;;;;;;;27.60;14.40;;;;;;;;;;5117720;28;20016;-75
2023/01/13 06:20:10;;;;;;;27.75;13.75;;;;;;;;;;5118414;28;20027;-77
2023/01/13 06:22:56;;;;;;;26.77;13.65;;;;;;;;;;5116027;28;20031;-77
2023/01/13 06:26:00;;;;;;;23.95;12.93;;;;;;;;;;5101614;28;20047;-77
2023/01/13 06:28:45;;;;;;;28.05;14.65;;;;;;;;;;5132421;28;20079;-78
2023/01/13 06:31:32;;;;;;;22.98;12.77;;;;;;;;;;5134861;28;20011;-77
2023/01/13 06:34:18;;;;;;;26.35;15.00;;;;;;;;;;5135930;28;20004;-76
2023/01/13 06:37:04;;;;;;;26.33;14.35;;;;;;;;;;5136067;28;20012;-77
2023/01/13 06:39:50;;;;;;;27.17;14.50;;;;;;;;;;5136685;28;20011;-76
2023/01/13 06:45:41;;;;;;;22.92;13.50;;;;;;;;;;5135986;28;20063;-76
2023/01/13 06:48:31;;;;;;;25.73;13.38;;;;;;;;;;5136061;28;20040;-75
2023/01/13 06:51:17;;;;;;;24.95;13.68;;;;;;;;;;5120939;28;20023;-76
2023/01/13 06:54:03;;;;;;;26.08;13.70;;;;;;;;;;5140542;28;20051;-76
2023/01/13 06:56:48;;;;;;;30.75;14.75;;;;;;;;;;5137749;28;20039;-76
2023/01/13 06:59:34;;;;;;;29.40;14.75;;;;;;;;;;5133130;28;20038;-79
2023/01/13 07:02:19;;;;;;;27.65;14.65;;;;;;;;;;5122199;28;20340;-77
2023/01/13 07:05:05;;;;;;;33.28;16.02;;;;;;;;;;5121615;28;20039;-77
2023/01/13 07:07:51;;;;;;;32.17;16.38;;;;;;;;;;5104085;28;20023;-78
2023/01/13 07:10:37;;;;;;;30.27;15.40;;;;;;;;;;5103804;28;20081;-77
2023/01/13 07:16:27;;;;;;;33.33;15.60;;;;;;;;;;5118561;28;20016;-77
2023/01/13 07:19:12;;;;;;;28.65;15.32;;;;;;;;;;5114711;28;20040;-77
2023/01/13 07:21:58;;;;;;;29.50;15.23;;;;;;;;;;5136272;28;20049;-77
2023/01/13 07:24:44;;;;;;;32.30;16.30;;;;;;;;;;5117366;28;20015;-77
2023/01/13 07:27:29;;;;;;;29.17;15.23;;;;;;;;;;5118219;28;20026;-77
2023/01/13 07:30:15;;;;;;;30.88;16.02;;;;;;;;;;5117950;28;20118;-75
2023/01/13 07:33:01;;;;;;;31.23;15.43;;;;;;;;;;5101726;28;20410;-77
2023/01/13 07:35:47;;;;;;;29.73;15.65;;;;;;;;;;5118925;28;20216;-76
2023/01/13 07:38:33;;;;;;;34.35;17.10;;;;;;;;;;5104403;28;20020;-77
2023/01/13 07:44:22;;;;;;;32.72;16.13;;;;;;;;;;5117097;28;20031;-77
2023/01/13 07:47:10;;;;;;;32.10;16.48;;;;;;;;;;5117818;28;20023;-77
2023/01/13 07:49:55;;;;;;;29.52;15.55;;;;;;;;;;5117662;28;20354;-77
2023/01/13 07:52:41;;;;;;;30.88;15.77;;;;;;;;;;5103219;28;20054;-77
2023/01/13 07:55:26;;;;;;;30.67;15.55;;;;;;;;;;5117584;28;20012;-74
2023/01/13 07:58:12;;;;;;;31.92;16.33;;;;;;;;;;5117228;28;20020;-77
2023/01/13 08:00:57;;;;;;;33.53;16.27;;;;;;;;;;5117509;28;20115;-76
2023/01/13 08:03:43;;;;;;;34.92;17.30;;;;;;;;;;5102977;28;20031;-77
2023/01/13 08:06:29;;;;;;;31.92;15.80;;;;;;;;;;5102064;28;20036;-77
2023/01/13 08:09:14;;;;;;;30.75;15.40;;;;;;;;;;5117492;28;20024;-77
2023/01/13 08:15:04;;;;;;;31.08;15.95;;;;;;;;;;5116515;28;20073;-77
2023/01/13 08:17:50;;;;;;;30.98;16.48;;;;;;;;;;5117593;28;20038;-77
2023/01/13 08:20:36;;;;;;;30.73;15.93;;;;;;;;;;5101584;28;20066;-77
2023/01/13 08:23:21;;;;;;;32.47;16.73;;;;;;;;;;5117824;28;20066;-76
2023/01/13 08:26:09;;;;;;;31.98;15.68;;;;;;;;;;5102943;28;20035;-77
2023/01/13 08:28:54;;;;;;;31.80;15.20;;;;;;;;;;5102268;28;20029;-77
2023/01/13 08:31:40;;;;;;;32.38;15.48;;;;;;;;;;5116859;28;20012;-76
2023/01/13 08:34:26;;;;;;;31.35;16.08;;;;;;;;;;5116134;28;20015;-77
2023/01/13 08:37:11;;;;;;;25.65;14.18;;;;;;;;;;5101294;28;20360;-77
2023/01/13 08:39:57;;;;;;;30.67;15.85;;;;;;;;;;5116795;28;20110;-76
2023/01/13 08:42:42;;;;;;;25.80;14.57;;;;;;;;;;5100707;28;20019;-77
2023/01/13 08:45:31;;;;;;;27.92;14.57;;;;;;;;;;5116702;28;20023;-77
2023/01/13 08:48:34;;;;;;;23.00;12.68;;;;;;;;;;5101220;28;20023;-77
2023/01/13 08:51:20;;;;;;;23.33;13.50;;;;;;;;;;5102394;28;20084;-76
2023/01/13 08:54:06;;;;;;;24.17;13.20;;;;;;;;;;5116842;28;20019;-78
2023/01/13 08:56:51;;;;;;;24.85;13.35;;;;;;;;;;5116759;28;20031;-76
2023/01/13 08:59:37;;;;;;;25.90;13.90;;;;;;;;;;5115459;28;20118;-77
2023/01/13 09:02:26;;;;;;;27.67;15.15;;;;;;;;;;5101023;28;20047;-76
2023/01/13 09:05:12;;;;;;;27.50;15.80;;;;;;;;;;5100836;28;20361;-77
2023/01/13 09:07:57;;;;;;;27.23;15.75;;;;;;;;;;5120014;28;20057;-77
2023/01/13 09:10:43;;;;;;;22.88;13.82;;;;;;;;;;5135612;28;20024;-77
2023/01/13 09:13:33;;;;;;;20.55;12.10;;;;;;;;;;5105986;28;20047;-77
2023/01/13 09:16:19;;;;;;;18.88;11.55;;;;;;;;;;5127038;28;20100;-77
2023/01/13 09:19:07;;;;;;;19.65;11.57;;;;;;;;;;5117629;28;20073;-77
2023/01/13 09:21:53;;;;;;;20.50;11.20;;;;;;;;;;5100583;28;20016;-77
2023/01/13 09:24:38;;;;;;;20.50;12.13;;;;;;;;;;5102479;28;20500;-76
2023/01/13 09:27:27;;;;;;;20.98;11.88;;;;;;;;;;5111493;28;20039;-77
2023/01/13 09:30:13;;;;;;;20.80;12.10;;;;;;;;;;5121273;28;20064;-76
2023/01/13 09:36:03;;;;;;;20.02;11.77;;;;;;;;;;5120466;28;20016;-77
2023/01/13 09:38:49;;;;;;;15.80;10.55;;;;;;;;;;5116534;28;20067;-77
2023/01/13 09:44:56;;;;;;;14.15;8.25;;;;;;;;;;5124496;28;20045;-76
2023/01/13 09:47:44;;;;;;;12.10;8.20;;;;;;;;;;5114624;28;20011;-76
2023/01/13 09:50:36;;;;;;;15.02;8.50;;;;;;;;;;5120112;28;20347;-77
2023/01/13 09:53:35;;;;;;;13.23;8.15;;;;;;;;;;5114730;28;20048;-76
2023/01/13 09:56:24;;;;;;;13.10;8.85;;;;;;;;;;5126411;28;20024;-76
2023/01/13 09:59:10;;;;;;;16.42;9.90;;;;;;;;;;5100485;28;20019;-77
2023/01/13 10:02:00;;;;;;;36.67;20.48;;;;;;;;;;5115298;28;20094;-76
2023/01/13 10:05:04;;;;;;;22.40;13.02;;;;;;;;;;5099459;28;20035;-76
2023/01/13 10:08:10;;;;;;;16.23;10.15;;;;;;;;;;5100391;28;20019;-77
2023/01/13 10:14:37;;;;;;;19.05;12.13;;;;;;;;;;5117186;28;20016;-79
2023/01/13 10:17:44;;;;;;;20.42;12.60;;;;;;;;;;5102689;28;20034;-77
2023/01/13 10:20:35;;;;;;;23.77;14.30;;;;;;;;;;5102909;28;20407;-77
2023/01/13 10:23:26;;;;;;;24.95;15.15;;;;;;;;;;5113281;28;20020;-78
2023/01/13 10:26:23;;;;;;;29.42;17.75;;;;;;;;;;5119463;28;20016;-76
2023/01/13 10:29:35;;;;;;;30.73;18.65;;;;;;;;;;5118263;28;20152;-77
2023/01/13 10:32:21;;;;;;;29.45;18.02;;;;;;;;;;5104312;28;20024;-77
2023/01/13 10:35:07;;;;;;;24.10;15.80;;;;;;;;;;5119194;28;20089;-77
2023/01/13 10:37:55;;;;;;;30.02;17.95;;;;;;;;;;5118829;28;20024;-78
2023/01/13 10:40:54;;;;;;;31.73;19.25;;;;;;;;;;5103792;28;20019;-78
2023/01/13 10:43:43;;;;;;;31.95;19.00;;;;;;;;;;5103509;28;20137;-77
2023/01/13 10:46:31;;;;;;;33.63;19.15;;;;;;;;;;5103254;28;20038;-77
2023/01/13 10:49:35;;;;;;;30.20;17.63;;;;;;;;;;5103299;28;20070;-77
2023/01/13 10:52:28;;;;;;;35.10;19.00;;;;;;;;;;5104485;28;20015;-77
2023/01/13 10:55:24;;;;;;;33.85;18.90;;;;;;;;;;5103042;28;20356;-76
2023/01/13 10:58:16;;;;;;;33.97;18.55;;;;;;;;;;5118955;28;20028;-77
2023/01/13 11:01:03;;;;;;;32.80;18.10;;;;;;;;;;5102526;28;20470;-78
2023/01/13 11:03:49;;;;;;;32.60;18.83;;;;;;;;;;5104126;28;20023;-77
2023/01/13 11:06:36;;;;;;;33.30;19.25;;;;;;;;;;5118406;28;20023;-77
2023/01/13 11:09:24;;;;;;;33.13;18.52;;;;;;;;;;5118816;28;20012;-77
2023/01/13 11:12:29;;;;;;;31.55;18.20;;;;;;;;;;5119546;28;20024;-76
2023/01/13 11:15:17;;;;;;;31.00;16.25;;;;;;;;;;5106143;28;20107;-77
2023/01/13 11:18:08;;;;;;;27.38;15.73;;;;;;;;;;5106520;28;20335;-78
2023/01/13 11:20:54;;;;;;;26.92;15.98;;;;;;;;;;5118245;28;20066;-77
2023/01/13 11:23:42;;;;;;;40.33;22.63;;;;;;;;;;5117668;28;20474;-77
2023/01/13 11:26:36;;;;;;;30.23;18.05;;;;;;;;;;5118712;28;20042;-77
2023/01/13 11:29:31;;;;;;;26.75;15.65;;;;;;;;;;5118141;28;20031;-76
2023/01/13 11:32:18;;;;;;;26.63;15.68;;;;;;;;;;5103087;28;20023;-77
2023/01/13 11:35:13;;;;;;;23.00;13.70;;;;;;;;;;5102815;28;20061;-77
2023/01/13 11:38:03;;;;;;;22.65;13.85;;;;;;;;;;5117739;28;20069;-77
2023/01/13 11:40:49;;;;;;;24.52;15.43;;;;;;;;;;5118451;28;20023;-76
2023/01/13 11:43:38;;;;;;;24.27;15.93;;;;;;;;;;5117607;28;20348;-77
2023/01/13 11:46:25;;;;;;;23.52;15.68;;;;;;;;;;5118575;28;20077;-77
2023/01/13 11:49:31;;;;;;;24.17;14.75;;;;;;;;;;5102307;28;20031;-77
2023/01/13 11:52:29;;;;;;;20.33;14.10;;;;;;;;;;5101583;28;20110;-77
2023/01/13 11:55:24;;;;;;;18.65;12.27;;;;;;;;;;5102270;28;20054;-76
2023/01/13 11:58:09;;;;;;;19.55;12.75;;;;;;;;;;5102871;28;20443;-76
2023/01/13 12:00:57;;;;;;;15.80;10.80;;;;;;;;;;5117406;28;20467;-77
2023/01/13 12:04:00;;;;;;;14.95;9.98;;;;;;;;;;5117574;28;20099;-76
2023/01/13 12:06:51;;;;;;;15.43;10.02;;;;;;;;;;5102979;28;20019;-77
2023/01/13 12:09:52;;;;;;;16.83;10.50;;;;;;;;;;5115822;28;20016;-78
2023/01/13 12:13:03;;;;;;;15.65;10.82;;;;;;;;;;5102215;28;20030;-76
2023/01/13 12:15:57;;;;;;;17.17;11.00;;;;;;;;;;5077912;28;20475;-77
2023/01/13 12:18:45;;;;;;;17.77;11.00;;;;;;;;;;5101052;28;20088;-77
2023/01/13 12:21:57;;;;;;;17.90;11.48;;;;;;;;;;5117110;28;20028;-76
2023/01/13 12:24:46;;;;;;;15.75;10.93;;;;;;;;;;5093673;28;20042;-77
2023/01/13 12:27:38;;;;;;;17.73;11.70;;;;;;;;;;5121239;28;20027;-78
2023/01/13 12:30:39;;;;;;;17.13;11.13;;;;;;;;;;5118531;28;20019;-78
2023/01/13 12:33:46;;;;;;;16.88;11.20;;;;;;;;;;5119949;28;20096;-78
2023/01/13 12:36:53;;;;;;;15.52;10.40;;;;;;;;;;5117336;28;20016;-78
2023/01/13 12:39:42;;;;;;;12.15;8.20;;;;;;;;;;5117124;28;20026;-78
2023/01/13 12:45:50;;;;;;;12.23;8.10;;;;;;;;;;5118465;28;20432;-78
2023/01/13 12:48:54;;;;;;;10.15;7.30;;;;;;;;;;5103242;28;20461;-78
2023/01/13 12:51:54;;;;;;;14.30;8.32;;;;;;;;;;5102849;28;20086;-77
2023/01/13 12:54:41;;;;;;;14.38;9.95;;;;;;;;;;5103048;28;20102;-78
2023/01/13 12:57:28;;;;;;;12.95;9.52;;;;;;;;;;5117330;28;20023;-78
2023/01/13 13:00:15;;;;;;;13.77;9.10;;;;;;;;;;5117112;28;20126;-77
2023/01/13 13:03:08;;;;;;;10.98;8.20;;;;;;;;;;5102111;28;20035;-78
2023/01/13 13:05:56;;;;;;;12.88;9.30;;;;;;;;;;5116043;28;20039;-77
2023/01/13 13:08:48;;;;;;;13.18;9.25;;;;;;;;;;5101689;28;20034;-79
2023/01/13 13:14:43;;;;;;;12.50;8.82;;;;;;;;;;5117334;28;20012;-78
2023/01/13 13:17:30;;;;;;;12.77;9.23;;;;;;;;;;5115893;28;20432;-78
2023/01/13 13:20:37;;;;;;;12.13;8.85;;;;;;;;;;5116318;28;20042;-79
2023/01/13 13:23:29;;;;;;;11.95;8.82;;;;;;;;;;5102628;28;20351;-78
2023/01/13 13:26:22;;;;;;;13.02;8.90;;;;;;;;;;5116657;28;20467;-77
2023/01/13 13:29:27;;;;;;;18.70;12.43;;;;;;;;;;5101448;28;20435;-77
2023/01/13 13:32:23;;;;;;;12.80;8.50;;;;;;;;;;5113994;28;20479;-78
2023/01/13 13:35:28;;;;;;;11.68;8.07;;;;;;;;;;5101882;28;20016;-76
2023/01/13 13:47:37;;;;;;;12.18;8.70;;;;;;;;;;5116860;28;20076;-78
2023/01/13 13:50:23;;;;;;;15.73;9.93;;;;;;;;;;5100446;28;20018;-77
2023/01/13 13:53:20;;;;;;;19.10;11.80;;;;;;;;;;5100579;28;20033;-77
2023/01/13 13:56:16;;;;;;;17.20;11.27;;;;;;;;;;5115326;28;20106;-78
2023/01/13 13:59:07;;;;;;;18.02;11.93;;;;;;;;;;5100555;28;20394;-79
2023/01/13 14:01:59;;;;;;;17.50;11.75;;;;;;;;;;5100901;28;20078;-77
2023/01/13 14:04:45;;;;;;;18.15;11.98;;;;;;;;;;5100514;28;20034;-79
2023/01/13 14:07:40;;;;;;;16.20;10.82;;;;;;;;;;5115470;28;20057;-78
2023/01/13 14:10:29;;;;;;;18.75;12.20;;;;;;;;;;5114662;28;20028;-78
2023/01/13 14:13:17;;;;;;;19.17;12.23;;;;;;;;;;5116329;28;20080;-79
2023/01/13 14:16:04;;;;;;;17.88;11.63;;;;;;;;;;5101043;28;20024;-78
2023/01/13 14:18:50;;;;;;;18.63;11.77;;;;;;;;;;5099977;28;20329;-77
2023/01/13 14:21:36;;;;;;;18.60;12.40;;;;;;;;;;5100179;28;20440;-77
2023/01/13 14:24:24;;;;;;;18.95;12.18;;;;;;;;;;5100542;28;20027;-78
2023/01/13 14:27:13;;;;;;;19.95;12.13;;;;;;;;;;5114912;28;20022;-78
2023/01/13 14:29:59;;;;;;;19.60;12.85;;;;;;;;;;5101470;28;20440;-78
2023/01/13 14:32:45;;;;;;;18.95;12.45;;;;;;;;;;5116239;28;20023;-78
2023/01/13 14:35:31;;;;;;;19.67;13.00;;;;;;;;;;5114774;28;20080;-77
2023/01/13 14:38:19;;;;;;;22.73;13.73;;;;;;;;;;5114969;28;20043;-78
2023/01/13 14:41:11;;;;;;;22.42;14.50;;;;;;;;;;5115919;28;20080;-82
2023/01/13 14:43:58;;;;;;;21.75;14.20;;;;;;;;;;5115532;28;20028;-76
2023/01/13 14:46:44;;;;;;;24.80;13.00;;;;;;;;;;5113082;28;20356;-77
2023/01/13 14:49:38;;;;;;;28.13;17.63;;;;;;;;;;5098548;28;20031;-78
2023/01/13 14:52:26;;;;;;;27.02;17.27;;;;;;;;;;5113382;28;20373;-77
2023/01/13 14:55:12;;;;;;;22.65;14.82;;;;;;;;;;5113724;28;20053;-77
2023/01/13 14:58:16;;;;;;;20.92;13.15;;;;;;;;;;5101381;28;20427;-78
2023/01/13 15:01:21;;;;;;;20.55;12.68;;;;;;;;;;5099485;28;20039;-77
2023/01/13 15:04:25;;;;;;;20.25;13.10;;;;;;;;;;5113079;28;20028;-77
2023/01/13 15:07:16;;;;;;;22.15;13.80;;;;;;;;;;5112357;28;20028;-77
2023/01/13 15:10:02;;;;;;;30.23;17.42;;;;;;;;;;5113594;28;20070;-78
2023/01/13 15:12:49;;;;;;;25.08;15.32;;;;;;;;;;5116811;28;20031;-78
2023/01/13 15:15:36;;;;;;;27.92;17.10;;;;;;;;;;5121331;28;20023;-78
2023/01/13 15:18:22;;;;;;;27.35;17.08;;;;;;;;;;5114072;28;20034;-78
2023/01/13 15:21:10;;;;;;;30.17;18.20;;;;;;;;;;5118311;28;20113;-77
2023/01/13 15:23:59;;;;;;;29.38;18.50;;;;;;;;;;5119384;28;20340;-78
2023/01/13 15:26:45;;;;;;;31.52;18.50;;;;;;;;;;5102484;28;20023;-77
2023/01/13 15:29:30;;;;;;;33.25;20.23;;;;;;;;;;5117998;28;20015;-77
2023/01/13 15:32:18;;;;;;;34.10;21.27;;;;;;;;;;5123223;28;20016;-77
2023/01/13 15:35:04;;;;;;;35.55;20.17;;;;;;;;;;5105237;28;20047;-77
2023/01/13 15:37:49;;;;;;;36.25;21.70;;;;;;;;;;5117899;28;20340;-78
2023/01/13 15:40:35;;;;;;;35.72;21.63;;;;;;;;;;5103441;28;20127;-78
2023/01/13 15:46:38;;;;;;;30.25;18.27;;;;;;;;;;5129657;28;20007;-75
2023/01/13 15:49:33;;;;;;;31.38;18.42;;;;;;;;;;5123423;28;20016;-76
2023/01/13 15:52:20;;;;;;;33.13;20.10;;;;;;;;;;5123385;28;20020;-75
2023/01/13 15:55:06;;;;;;;30.50;18.92;;;;;;;;;;5125473;28;20019;-76
2023/01/13 15:57:51;;;;;;;35.88;21.48;;;;;;;;;;5130886;28;20016;-76
2023/01/13 16:00:37;;;;;;;40.80;22.60;;;;;;;;;;5121351;28;20149;-77
2023/01/13 16:03:22;;;;;;;33.85;21.23;;;;;;;;;;5117651;28;20027;-77
2023/01/13 16:06:18;;;;;;;36.60;22.23;;;;;;;;;;5126846;28;20035;-77
2023/01/13 16:09:04;;;;;;;34.88;20.42;;;;;;;;;;5114790;28;20081;-77
2023/01/13 16:11:50;;;;;;;36.63;20.65;;;;;;;;;;5107805;28;20015;-77
2023/01/13 16:14:39;;;;;;;34.25;19.92;;;;;;;;;;5135688;28;20020;-79
2023/01/13 16:17:28;;;;;;;39.72;22.90;;;;;;;;;;5117792;28;20019;-78
2023/01/13 16:20:15;;;;;;;41.88;23.42;;;;;;;;;;5101851;28;20059;-79
2023/01/13 16:23:00;;;;;;;39.67;23.25;;;;;;;;;;5116049;28;20038;-78
2023/01/13 16:25:46;;;;;;;44.47;24.30;;;;;;;;;;5117690;28;20031;-77
2023/01/13 16:28:34;;;;;;;36.70;21.33;;;;;;;;;;5117219;28;20023;-77
2023/01/13 16:31:23;;;;;;;35.05;19.75;;;;;;;;;;5117584;28;20062;-78
2023/01/13 16:34:08;;;;;;;31.55;18.92;;;;;;;;;;5118393;28;20402;-77
2023/01/13 16:36:54;;;;;;;31.52;18.95;;;;;;;;;;5131424;28;20038;-76
2023/01/13 16:39:40;;;;;;;28.60;17.10;;;;;;;;;;5124045;28;20114;-77
2023/01/13 16:42:25;;;;;;;30.02;17.02;;;;;;;;;;5123368;28;20019;-76
2023/01/13 16:45:11;;;;;;;25.92;16.95;;;;;;;;;;5118566;28;20022;-76
2023/01/13 16:47:56;;;;;;;27.75;16.70;;;;;;;;;;5102431;28;20024;-78
2023/01/13 16:50:42;;;;;;;29.98;17.92;;;;;;;;;;5118135;28;20082;-78
2023/01/13 16:53:27;;;;;;;24.88;14.73;;;;;;;;;;5118630;27;20043;-77
2023/01/13 16:56:13;;;;;;;23.58;14.73;;;;;;;;;;5116430;28;20035;-76
2023/01/13 16:59:09;;;;;;;25.27;14.95;;;;;;;;;;5117091;28;20444;-78
2023/01/13 17:01:55;;;;;;;85.72;36.83;;;;;;;;;;5115846;28;20051;-76
2023/01/13 17:04:40;;;;;;;25.10;14.85;;;;;;;;;;5116937;28;20020;-75
2023/01/13 17:07:28;;;;;;;23.63;13.38;;;;;;;;;;5102759;28;20027;-75
2023/01/13 17:10:15;;;;;;;22.55;13.65;;;;;;;;;;5115866;28;20351;-75
2023/01/13 17:13:01;;;;;;;22.73;13.02;;;;;;;;;;5115353;28;20023;-74
2023/01/13 17:15:47;;;;;;;47.83;24.15;;;;;;;;;;5116842;28;20370;-75
2023/01/13 17:18:32;;;;;;;58.17;30.33;;;;;;;;;;5116606;28;20011;-74
2023/01/13 17:21:18;;;;;;;31.90;18.27;;;;;;;;;;5100734;28;20063;-73
2023/01/13 17:24:05;;;;;;;32.40;20.10;;;;;;;;;;5101788;28;20125;-75
2023/01/13 17:26:50;;;;;;;34.65;19.33;;;;;;;;;;5100743;28;20019;-75
2023/01/13 17:29:36;;;;;;;34.95;20.20;;;;;;;;;;5114923;28;20411;-75
2023/01/13 17:32:22;;;;;;;41.70;25.08;;;;;;;;;;5115765;28;20043;-74
2023/01/13 17:35:07;;;;;;;38.80;24.33;;;;;;;;;;5115819;28;20020;-75